sensor_id;sensor_type;location;lat;lon;timestamp;pressure;altitude;pressure_sealevel;temperature;humidity
15880;BME280;61999;51.514;14.614;2022-08-01T00:00:05;99662.13;;;13.65;49.73
15880;BME280;61999;51.514;14.614;2022-08-01T00:02:34;99659.09;;;13.42;50.02
15880;BME280;61999;51.514;14.614;2022-08-01T00:05:02;99659.06;;;13.24;50.36
15880;BME280;61999;51.514;14.614;2022-08-01T00:07:32;99661.22;;;13.56;49.76
15880;BME280;61999;51.514;14.614;2022-08-01T00:10:00;99658.13;;;13.78;48.70
15880;BME280;61999;51.514;14.614;2022-08-01T00:12:29;99655.81;;;13.30;49.83
15880;BME280;61999;51.514;14.614;2022-08-01T00:14:57;99652.09;;;13.41;49.66
15880;BME280;61999;51.514;14.614;2022-08-01T00:17:25;99647.28;;;13.36;49.58
15880;BME280;61999;51.514;14.614;2022-08-01T00:19:54;99645.13;;;12.94;50.76
15880;BME280;61999;51.514;14.614;2022-08-01T00:22:22;99648.91;;;12.91;50.98
15880;BME280;61999;51.514;14.614;2022-08-01T00:24:50;99642.53;;;12.84;50.88
15880;BME280;61999;51.514;14.614;2022-08-01T00:27:18;99636.72;;;12.81;51.45
15880;BME280;61999;51.514;14.614;2022-08-01T00:29:47;99635.53;;;12.93;51.04
15880;BME280;61999;51.514;14.614;2022-08-01T00:32:15;99636.41;;;13.11;50.58
15880;BME280;61999;51.514;14.614;2022-08-01T00:34:43;99631.81;;;13.13;50.42
15880;BME280;61999;51.514;14.614;2022-08-01T00:37:11;99635.56;;;12.83;51.43
15880;BME280;61999;51.514;14.614;2022-08-01T00:39:39;99630.47;;;13.09;51.03
15880;BME280;61999;51.514;14.614;2022-08-01T00:42:10;99634.44;;;12.96;51.11
15880;BME280;61999;51.514;14.614;2022-08-01T00:44:39;99633.16;;;13.17;50.01
15880;BME280;61999;51.514;14.614;2022-08-01T00:47:09;99646.38;;;13.00;50.70
15880;BME280;61999;51.514;14.614;2022-08-01T00:49:37;99639.25;;;13.28;49.90
15880;BME280;61999;51.514;14.614;2022-08-01T00:52:06;99637.28;;;13.30;49.90
15880;BME280;61999;51.514;14.614;2022-08-01T00:54:34;99633.59;;;13.58;49.87
15880;BME280;61999;51.514;14.614;2022-08-01T00:57:03;99637.13;;;13.67;49.51
15880;BME280;61999;51.514;14.614;2022-08-01T00:59:31;99640.28;;;13.35;50.46
15880;BME280;61999;51.514;14.614;2022-08-01T01:02:00;99646.59;;;13.52;49.45
15880;BME280;61999;51.514;14.614;2022-08-01T01:04:29;99637.09;;;13.13;50.54
15880;BME280;61999;51.514;14.614;2022-08-01T01:07:06;99635.78;;;13.00;50.98
15880;BME280;61999;51.514;14.614;2022-08-01T01:09:44;99638.47;;;12.90;51.27
15880;BME280;61999;51.514;14.614;2022-08-01T01:12:20;99640.97;;;13.01;51.14
15880;BME280;61999;51.514;14.614;2022-08-01T01:14:56;99632.06;;;12.65;52.30
15880;BME280;61999;51.514;14.614;2022-08-01T01:17:35;99638.28;;;12.74;52.28
15880;BME280;61999;51.514;14.614;2022-08-01T01:20:08;99644.50;;;12.82;51.78
15880;BME280;61999;51.514;14.614;2022-08-01T01:25:54;99640.22;;;12.44;52.55
15880;BME280;61999;51.514;14.614;2022-08-01T01:28:35;99639.03;;;12.56;52.88
15880;BME280;61999;51.514;14.614;2022-08-01T01:31:13;99635.66;;;12.91;52.13
15880;BME280;61999;51.514;14.614;2022-08-01T01:33:43;99643.03;;;13.43;50.77
15880;BME280;61999;51.514;14.614;2022-08-01T01:36:12;99636.38;;;13.93;49.62
15880;BME280;61999;51.514;14.614;2022-08-01T01:38:44;99637.50;;;13.54;49.88
15880;BME280;61999;51.514;14.614;2022-08-01T01:41:17;99642.25;;;13.69;49.96
15880;BME280;61999;51.514;14.614;2022-08-01T01:43:46;99633.94;;;13.46;50.40
15880;BME280;61999;51.514;14.614;2022-08-01T01:46:22;99631.44;;;13.26;50.93
15880;BME280;61999;51.514;14.614;2022-08-01T01:48:55;99638.19;;;13.38;50.87
15880;BME280;61999;51.514;14.614;2022-08-01T01:51:27;99639.50;;;13.52;50.75
15880;BME280;61999;51.514;14.614;2022-08-01T01:53:57;99644.25;;;13.31;51.51
15880;BME280;61999;51.514;14.614;2022-08-01T01:56:28;99641.28;;;13.16;51.49
15880;BME280;61999;51.514;14.614;2022-08-01T01:59:01;99640.34;;;13.71;49.85
15880;BME280;61999;51.514;14.614;2022-08-01T02:01:33;99640.34;;;13.07;51.45
15880;BME280;61999;51.514;14.614;2022-08-01T02:04:03;99640.63;;;12.77;52.55
15880;BME280;61999;51.514;14.614;2022-08-01T02:06:32;99639.63;;;12.78;52.58
15880;BME280;61999;51.514;14.614;2022-08-01T02:09:02;99638.47;;;12.62;53.14
15880;BME280;61999;51.514;14.614;2022-08-01T02:11:31;99644.56;;;12.73;52.89
15880;BME280;61999;51.514;14.614;2022-08-01T02:14:02;99643.91;;;12.98;52.10
15880;BME280;61999;51.514;14.614;2022-08-01T02:16:36;99640.69;;;12.67;52.90
15880;BME280;61999;51.514;14.614;2022-08-01T02:19:04;99645.56;;;12.24;54.33
15880;BME280;61999;51.514;14.614;2022-08-01T02:21:39;99640.03;;;11.79;55.76
15880;BME280;61999;51.514;14.614;2022-08-01T02:24:14;99640.84;;;11.60;56.99
15880;BME280;61999;51.514;14.614;2022-08-01T02:26:49;99634.94;;;12.15;55.37
15880;BME280;61999;51.514;14.614;2022-08-01T02:29:26;99641.25;;;12.23;54.90
15880;BME280;61999;51.514;14.614;2022-08-01T02:31:57;99641.06;;;12.35;54.17
15880;BME280;61999;51.514;14.614;2022-08-01T02:34:29;99639.72;;;12.21;55.21
15880;BME280;61999;51.514;14.614;2022-08-01T02:37:01;99639.28;;;12.63;54.02
15880;BME280;61999;51.514;14.614;2022-08-01T02:39:32;99632.06;;;12.65;53.83
15880;BME280;61999;51.514;14.614;2022-08-01T02:42:07;99638.22;;;12.56;54.33
15880;BME280;61999;51.514;14.614;2022-08-01T02:44:39;99642.28;;;13.33;51.46
15880;BME280;61999;51.514;14.614;2022-08-01T02:47:11;99650.00;;;13.80;50.03
15880;BME280;61999;51.514;14.614;2022-08-01T02:49:44;99646.19;;;14.00;48.34
15880;BME280;61999;51.514;14.614;2022-08-01T02:52:15;99646.75;;;14.12;48.13
15880;BME280;61999;51.514;14.614;2022-08-01T02:54:45;99650.78;;;14.16;48.40
15880;BME280;61999;51.514;14.614;2022-08-01T02:57:16;99651.38;;;13.84;49.62
15880;BME280;61999;51.514;14.614;2022-08-01T02:59:47;99655.19;;;14.08;48.64
15880;BME280;61999;51.514;14.614;2022-08-01T03:02:20;99656.28;;;14.23;47.97
15880;BME280;61999;51.514;14.614;2022-08-01T03:04:52;99656.34;;;13.69;49.95
15880;BME280;61999;51.514;14.614;2022-08-01T03:07:23;99655.13;;;13.46;50.96
15880;BME280;61999;51.514;14.614;2022-08-01T03:09:52;99657.44;;;13.58;50.35
15880;BME280;61999;51.514;14.614;2022-08-01T03:12:26;99656.19;;;13.35;51.72
15880;BME280;61999;51.514;14.614;2022-08-01T03:14:57;99665.84;;;13.90;49.29
15880;BME280;61999;51.514;14.614;2022-08-01T03:17:30;99656.41;;;14.13;48.56
15880;BME280;61999;51.514;14.614;2022-08-01T03:20:01;99660.63;;;14.24;48.11
15880;BME280;61999;51.514;14.614;2022-08-01T03:22:32;99664.63;;;14.28;48.01
15880;BME280;61999;51.514;14.614;2022-08-01T03:25:02;99661.34;;;14.34;47.63
15880;BME280;61999;51.514;14.614;2022-08-01T03:27:35;99654.63;;;13.96;48.98
15880;BME280;61999;51.514;14.614;2022-08-01T03:30:06;99661.19;;;14.10;49.09
15880;BME280;61999;51.514;14.614;2022-08-01T03:32:36;99664.31;;;14.31;48.04
15880;BME280;61999;51.514;14.614;2022-08-01T03:35:05;99666.31;;;14.37;48.01
15880;BME280;61999;51.514;14.614;2022-08-01T03:37:41;99665.75;;;13.64;50.58
15880;BME280;61999;51.514;14.614;2022-08-01T03:40:24;99664.25;;;13.61;51.07
15880;BME280;61999;51.514;14.614;2022-08-01T03:42:59;99659.63;;;13.99;49.82
15880;BME280;61999;51.514;14.614;2022-08-01T03:45:35;99659.44;;;14.18;49.41
15880;BME280;61999;51.514;14.614;2022-08-01T03:48:13;99657.09;;;14.41;48.28
15880;BME280;61999;51.514;14.614;2022-08-01T03:50:48;99661.78;;;14.47;48.04
15880;BME280;61999;51.514;14.614;2022-08-01T03:53:23;99660.97;;;14.47;48.41
15880;BME280;61999;51.514;14.614;2022-08-01T03:55:54;99663.69;;;14.37;48.60
15880;BME280;61999;51.514;14.614;2022-08-01T03:58:23;99665.78;;;14.52;48.20
15880;BME280;61999;51.514;14.614;2022-08-01T04:00:53;99665.25;;;14.48;48.54
15880;BME280;61999;51.514;14.614;2022-08-01T04:03:24;99663.81;;;14.54;48.13
15880;BME280;61999;51.514;14.614;2022-08-01T04:05:52;99668.47;;;14.08;49.86
15880;BME280;61999;51.514;14.614;2022-08-01T04:08:19;99670.47;;;13.88;50.33
15880;BME280;61999;51.514;14.614;2022-08-01T04:10:47;99677.31;;;14.16;49.61
15880;BME280;61999;51.514;14.614;2022-08-01T04:13:18;99674.28;;;14.37;48.94
15880;BME280;61999;51.514;14.614;2022-08-01T04:15:46;99673.13;;;14.40;49.29
15880;BME280;61999;51.514;14.614;2022-08-01T04:18:17;99673.44;;;14.11;50.28
15880;BME280;61999;51.514;14.614;2022-08-01T04:20:47;99679.03;;;14.25;49.85
15880;BME280;61999;51.514;14.614;2022-08-01T04:23:21;99678.88;;;14.27;49.95
15880;BME280;61999;51.514;14.614;2022-08-01T04:25:50;99671.09;;;14.52;49.11
15880;BME280;61999;51.514;14.614;2022-08-01T04:28:22;99698.38;;;14.00;50.91
15880;BME280;61999;51.514;14.614;2022-08-01T04:30:54;99692.78;;;13.22;52.92
15880;BME280;61999;51.514;14.614;2022-08-01T04:33:29;99693.94;;;12.82;54.59
15880;BME280;61999;51.514;14.614;2022-08-01T04:36:03;99691.03;;;12.38;55.99
15880;BME280;61999;51.514;14.614;2022-08-01T04:38:34;99699.28;;;12.62;55.42
15880;BME280;61999;51.514;14.614;2022-08-01T04:41:04;99698.28;;;12.73;55.17
15880;BME280;61999;51.514;14.614;2022-08-01T04:43:34;99693.97;;;12.15;57.27
15880;BME280;61999;51.514;14.614;2022-08-01T04:46:03;99696.31;;;12.09;57.73
15880;BME280;61999;51.514;14.614;2022-08-01T04:48:32;99695.78;;;12.24;57.61
15880;BME280;61999;51.514;14.614;2022-08-01T04:51:03;99696.19;;;12.30;57.36
15880;BME280;61999;51.514;14.614;2022-08-01T04:53:32;99694.25;;;12.12;57.54
15880;BME280;61999;51.514;14.614;2022-08-01T04:55:59;99695.91;;;12.03;57.81
15880;BME280;61999;51.514;14.614;2022-08-01T04:58:27;99693.25;;;12.13;58.27
15880;BME280;61999;51.514;14.614;2022-08-01T05:00:55;99702.03;;;12.23;58.33
15880;BME280;61999;51.514;14.614;2022-08-01T05:03:23;99700.03;;;12.45;57.47
15880;BME280;61999;51.514;14.614;2022-08-01T05:05:51;99703.97;;;12.41;57.42
15880;BME280;61999;51.514;14.614;2022-08-01T05:08:21;99690.25;;;12.65;56.96
15880;BME280;61999;51.514;14.614;2022-08-01T05:10:48;99694.41;;;12.67;56.76
15880;BME280;61999;51.514;14.614;2022-08-01T05:13:16;99698.25;;;12.83;56.17
15880;BME280;61999;51.514;14.614;2022-08-01T05:15:44;99703.50;;;12.92;56.25
15880;BME280;61999;51.514;14.614;2022-08-01T05:18:12;99707.09;;;12.54;57.47
15880;BME280;61999;51.514;14.614;2022-08-01T05:20:40;99705.16;;;12.93;56.36
15880;BME280;61999;51.514;14.614;2022-08-01T05:23:09;99700.22;;;12.81;56.74
15880;BME280;61999;51.514;14.614;2022-08-01T05:25:38;99703.34;;;13.49;55.34
15880;BME280;61999;51.514;14.614;2022-08-01T05:28:06;99699.75;;;12.85;56.07
15880;BME280;61999;51.514;14.614;2022-08-01T05:30:42;99704.13;;;12.77;57.27
15880;BME280;61999;51.514;14.614;2022-08-01T05:33:10;99699.81;;;12.66;57.50
15880;BME280;61999;51.514;14.614;2022-08-01T05:35:38;99697.47;;;12.73;57.57
15880;BME280;61999;51.514;14.614;2022-08-01T05:38:06;99698.19;;;13.02;56.55
15880;BME280;61999;51.514;14.614;2022-08-01T05:40:35;99704.81;;;13.61;55.09
15880;BME280;61999;51.514;14.614;2022-08-01T05:43:03;99696.78;;;13.89;55.18
15880;BME280;61999;51.514;14.614;2022-08-01T05:45:31;99702.09;;;14.07;54.12
15880;BME280;61999;51.514;14.614;2022-08-01T05:48:00;99707.53;;;14.05;53.23
15880;BME280;61999;51.514;14.614;2022-08-01T05:50:28;99702.59;;;14.55;52.68
15880;BME280;61999;51.514;14.614;2022-08-01T05:52:56;99696.31;;;15.16;51.18
15880;BME280;61999;51.514;14.614;2022-08-01T05:55:24;99703.16;;;14.58;52.32
15880;BME280;61999;51.514;14.614;2022-08-01T05:57:52;99695.16;;;15.35;50.86
15880;BME280;61999;51.514;14.614;2022-08-01T06:00:20;99690.84;;;14.91;51.85
15880;BME280;61999;51.514;14.614;2022-08-01T06:02:48;99707.97;;;15.39;51.37
15880;BME280;61999;51.514;14.614;2022-08-01T06:05:17;99700.94;;;15.97;50.12
15880;BME280;61999;51.514;14.614;2022-08-01T06:07:45;99703.59;;;16.30;49.31
15880;BME280;61999;51.514;14.614;2022-08-01T06:10:13;99707.09;;;15.98;48.86
15880;BME280;61999;51.514;14.614;2022-08-01T06:12:41;99702.38;;;15.51;50.23
15880;BME280;61999;51.514;14.614;2022-08-01T06:15:11;99700.44;;;15.94;49.87
15880;BME280;61999;51.514;14.614;2022-08-01T06:17:39;99706.03;;;15.66;49.35
15880;BME280;61999;51.514;14.614;2022-08-01T06:20:09;99717.38;;;16.01;47.77
15880;BME280;61999;51.514;14.614;2022-08-01T06:22:38;99711.53;;;15.73;49.19
15880;BME280;61999;51.514;14.614;2022-08-01T06:25:08;99704.53;;;15.63;50.01
15880;BME280;61999;51.514;14.614;2022-08-01T06:27:36;99710.06;;;16.52;47.31
15880;BME280;61999;51.514;14.614;2022-08-01T06:30:06;99712.69;;;16.44;47.44
15880;BME280;61999;51.514;14.614;2022-08-01T06:32:35;99723.53;;;15.26;50.89
15880;BME280;61999;51.514;14.614;2022-08-01T06:35:05;99716.00;;;15.72;49.65
15880;BME280;61999;51.514;14.614;2022-08-01T06:37:33;99717.72;;;15.98;48.75
15880;BME280;61999;51.514;14.614;2022-08-01T06:40:03;99719.03;;;14.84;52.22
15880;BME280;61999;51.514;14.614;2022-08-01T06:42:32;99733.06;;;14.24;52.83
15880;BME280;61999;51.514;14.614;2022-08-01T06:45:02;99734.22;;;14.74;52.55
15880;BME280;61999;51.514;14.614;2022-08-01T06:47:30;99729.44;;;14.52;52.83
15880;BME280;61999;51.514;14.614;2022-08-01T06:49:58;99737.06;;;15.57;49.93
15880;BME280;61999;51.514;14.614;2022-08-01T06:52:26;99733.22;;;14.67;53.01
15880;BME280;61999;51.514;14.614;2022-08-01T06:54:54;99729.16;;;15.74;50.17
15880;BME280;61999;51.514;14.614;2022-08-01T06:57:23;99727.34;;;16.23;48.68
15880;BME280;61999;51.514;14.614;2022-08-01T06:59:51;99733.16;;;16.60;48.50
15880;BME280;61999;51.514;14.614;2022-08-01T07:02:21;99730.28;;;16.78;47.10
15880;BME280;61999;51.514;14.614;2022-08-01T07:04:49;99738.88;;;15.49;49.71
15880;BME280;61999;51.514;14.614;2022-08-01T07:07:17;99729.91;;;14.29;52.60
15880;BME280;61999;51.514;14.614;2022-08-01T07:09:45;99732.09;;;14.52;53.64
15880;BME280;61999;51.514;14.614;2022-08-01T07:12:13;99734.31;;;15.16;51.63
15880;BME280;61999;51.514;14.614;2022-08-01T07:14:42;99731.00;;;14.88;51.98
15880;BME280;61999;51.514;14.614;2022-08-01T07:17:10;99732.09;;;15.12;51.33
15880;BME280;61999;51.514;14.614;2022-08-01T07:19:38;99731.97;;;15.64;49.33
15880;BME280;61999;51.514;14.614;2022-08-01T07:22:06;99733.69;;;16.14;48.83
15880;BME280;61999;51.514;14.614;2022-08-01T07:24:34;99737.19;;;15.90;49.34
15880;BME280;61999;51.514;14.614;2022-08-01T07:27:02;99738.47;;;15.19;51.92
15880;BME280;61999;51.514;14.614;2022-08-01T07:29:30;99745.16;;;15.31;51.73
15880;BME280;61999;51.514;14.614;2022-08-01T07:32:00;99745.97;;;14.98;53.10
15880;BME280;61999;51.514;14.614;2022-08-01T07:34:28;99747.84;;;15.05;52.69
15880;BME280;61999;51.514;14.614;2022-08-01T07:36:56;99741.47;;;15.24;52.46
15880;BME280;61999;51.514;14.614;2022-08-01T07:39:24;99737.88;;;14.47;55.17
15880;BME280;61999;51.514;14.614;2022-08-01T07:41:52;99737.25;;;15.13;53.68
15880;BME280;61999;51.514;14.614;2022-08-01T07:44:21;99738.09;;;15.14;53.59
15880;BME280;61999;51.514;14.614;2022-08-01T07:46:49;99738.50;;;14.93;55.00
15880;BME280;61999;51.514;14.614;2022-08-01T07:49:18;99730.00;;;15.15;54.28
15880;BME280;61999;51.514;14.614;2022-08-01T07:51:48;99737.06;;;15.41;52.59
15880;BME280;61999;51.514;14.614;2022-08-01T07:54:17;99737.06;;;15.41;53.78
15880;BME280;61999;51.514;14.614;2022-08-01T07:56:44;99743.34;;;14.45;57.14
15880;BME280;61999;51.514;14.614;2022-08-01T07:59:12;99748.94;;;14.42;58.47
15880;BME280;61999;51.514;14.614;2022-08-01T08:01:40;99741.91;;;13.97;59.59
15880;BME280;61999;51.514;14.614;2022-08-01T08:04:09;99737.56;;;14.32;57.97
15880;BME280;61999;51.514;14.614;2022-08-01T08:06:38;99749.94;;;14.93;55.90
15880;BME280;61999;51.514;14.614;2022-08-01T08:09:07;99743.34;;;14.27;57.87
15880;BME280;61999;51.514;14.614;2022-08-01T08:11:35;99747.28;;;14.41;57.06
15880;BME280;61999;51.514;14.614;2022-08-01T08:14:03;99741.47;;;14.20;58.63
15880;BME280;61999;51.514;14.614;2022-08-01T08:16:31;99739.97;;;14.61;57.54
15880;BME280;61999;51.514;14.614;2022-08-01T08:18:59;99740.97;;;14.42;57.70
15880;BME280;61999;51.514;14.614;2022-08-01T08:21:27;99750.66;;;14.08;58.18
15880;BME280;61999;51.514;14.614;2022-08-01T08:23:58;99749.34;;;13.94;59.12
15880;BME280;61999;51.514;14.614;2022-08-01T08:26:43;99747.13;;;14.69;57.06
15880;BME280;61999;51.514;14.614;2022-08-01T08:29:11;99743.19;;;15.42;55.09
15880;BME280;61999;51.514;14.614;2022-08-01T08:31:39;99738.94;;;15.73;54.13
15880;BME280;61999;51.514;14.614;2022-08-01T08:34:08;99750.13;;;16.34;52.12
15880;BME280;61999;51.514;14.614;2022-08-01T08:36:36;99739.22;;;15.46;53.90
15880;BME280;61999;51.514;14.614;2022-08-01T08:39:06;99752.22;;;14.88;55.57
15880;BME280;61999;51.514;14.614;2022-08-01T08:41:35;99752.19;;;14.36;57.78
15880;BME280;61999;51.514;14.614;2022-08-01T08:44:05;99751.53;;;14.86;56.29
15880;BME280;61999;51.514;14.614;2022-08-01T08:46:40;99742.31;;;15.25;54.96
15880;BME280;61999;51.514;14.614;2022-08-01T08:49:10;99744.16;;;15.91;52.80
15880;BME280;61999;51.514;14.614;2022-08-01T08:51:41;99749.50;;;16.08;51.84
15880;BME280;61999;51.514;14.614;2022-08-01T08:54:12;99750.97;;;16.43;51.37
15880;BME280;61999;51.514;14.614;2022-08-01T08:56:42;99751.84;;;17.07;49.76
15880;BME280;61999;51.514;14.614;2022-08-01T08:59:12;99754.81;;;17.21;48.85
15880;BME280;61999;51.514;14.614;2022-08-01T09:01:42;99753.94;;;15.82;51.81
15880;BME280;61999;51.514;14.614;2022-08-01T09:04:11;99760.25;;;15.98;52.86
15880;BME280;61999;51.514;14.614;2022-08-01T09:06:40;99755.22;;;15.62;53.44
15880;BME280;61999;51.514;14.614;2022-08-01T09:09:09;99772.84;;;15.79;53.01
15880;BME280;61999;51.514;14.614;2022-08-01T09:11:41;99759.94;;;16.17;51.73
15880;BME280;61999;51.514;14.614;2022-08-01T09:14:14;99768.78;;;15.51;53.54
15880;BME280;61999;51.514;14.614;2022-08-01T09:17:01;99769.28;;;16.21;52.46
15880;BME280;61999;51.514;14.614;2022-08-01T09:19:36;99768.94;;;16.24;53.02
15880;BME280;61999;51.514;14.614;2022-08-01T09:22:10;99772.91;;;16.20;51.76
15880;BME280;61999;51.514;14.614;2022-08-01T09:24:40;99776.47;;;15.20;54.87
15880;BME280;61999;51.514;14.614;2022-08-01T09:27:20;99772.13;;;15.53;54.07
15880;BME280;61999;51.514;14.614;2022-08-01T09:29:51;99774.59;;;16.13;52.18
15880;BME280;61999;51.514;14.614;2022-08-01T09:32:20;99778.50;;;15.76;53.16
15880;BME280;61999;51.514;14.614;2022-08-01T09:34:58;99779.81;;;15.22;53.76
15880;BME280;61999;51.514;14.614;2022-08-01T09:37:45;99776.88;;;15.83;52.99
15880;BME280;61999;51.514;14.614;2022-08-01T09:40:13;99785.22;;;16.05;52.92
15880;BME280;61999;51.514;14.614;2022-08-01T09:42:43;99783.75;;;16.27;52.51
15880;BME280;61999;51.514;14.614;2022-08-01T09:45:33;99780.44;;;15.58;54.17
15880;BME280;61999;51.514;14.614;2022-08-01T09:48:06;99777.88;;;15.82;53.19
15880;BME280;61999;51.514;14.614;2022-08-01T09:50:40;99774.59;;;16.13;50.73
15880;BME280;61999;51.514;14.614;2022-08-01T09:53:09;99771.56;;;16.00;52.72
15880;BME280;61999;51.514;14.614;2022-08-01T09:55:37;99778.63;;;16.50;50.69
15880;BME280;61999;51.514;14.614;2022-08-01T09:58:08;99790.56;;;16.79;49.98
15880;BME280;61999;51.514;14.614;2022-08-01T10:00:39;99784.19;;;15.90;52.27
15880;BME280;61999;51.514;14.614;2022-08-01T10:03:22;99792.19;;;16.80;50.19
15880;BME280;61999;51.514;14.614;2022-08-01T10:05:51;99788.06;;;15.61;52.76
15880;BME280;61999;51.514;14.614;2022-08-01T10:08:20;99783.75;;;15.60;53.26
15880;BME280;61999;51.514;14.614;2022-08-01T10:11:07;99779.81;;;15.80;51.84
15880;BME280;61999;51.514;14.614;2022-08-01T10:13:37;99789.22;;;16.42;50.37
15880;BME280;61999;51.514;14.614;2022-08-01T10:16:06;99783.72;;;16.02;52.20
15880;BME280;61999;51.514;14.614;2022-08-01T10:18:35;99788.38;;;16.17;50.64
15880;BME280;61999;51.514;14.614;2022-08-01T10:21:04;99793.84;;;15.48;53.00
15880;BME280;61999;51.514;14.614;2022-08-01T10:23:36;99804.16;;;16.02;52.06
15880;BME280;61999;51.514;14.614;2022-08-01T10:26:05;99791.06;;;16.66;50.97
15880;BME280;61999;51.514;14.614;2022-08-01T10:28:38;99798.75;;;17.33;49.83
15880;BME280;61999;51.514;14.614;2022-08-01T10:31:07;99810.84;;;16.47;52.40
15880;BME280;61999;51.514;14.614;2022-08-01T10:33:37;99808.84;;;16.90;50.64
15880;BME280;61999;51.514;14.614;2022-08-01T10:36:06;99788.22;;;16.43;51.52
15880;BME280;61999;51.514;14.614;2022-08-01T10:38:35;99807.47;;;15.88;53.85
15880;BME280;61999;51.514;14.614;2022-08-01T10:41:04;99804.13;;;17.00;50.63
15880;BME280;61999;51.514;14.614;2022-08-01T10:43:32;99800.19;;;17.83;48.48
15880;BME280;61999;51.514;14.614;2022-08-01T10:46:03;99803.94;;;18.20;47.58
15880;BME280;61999;51.514;14.614;2022-08-01T10:48:41;99798.81;;;16.92;53.07
15880;BME280;61999;51.514;14.614;2022-08-01T10:51:11;99809.66;;;16.90;53.59
15880;BME280;61999;51.514;14.614;2022-08-01T10:53:46;99807.03;;;16.74;54.10
15880;BME280;61999;51.514;14.614;2022-08-01T10:56:15;99802.53;;;17.38;52.44
15880;BME280;61999;51.514;14.614;2022-08-01T10:58:47;99802.09;;;17.97;50.00
15880;BME280;61999;51.514;14.614;2022-08-01T11:01:21;99800.75;;;17.31;53.09
15880;BME280;61999;51.514;14.614;2022-08-01T11:04:05;99810.13;;;17.10;53.88
15880;BME280;61999;51.514;14.614;2022-08-01T11:07:02;99806.84;;;16.10;55.99
15880;BME280;61999;51.514;14.614;2022-08-01T11:09:41;99805.53;;;16.63;54.89
15880;BME280;61999;51.514;14.614;2022-08-01T11:12:12;99807.94;;;17.06;53.21
15880;BME280;61999;51.514;14.614;2022-08-01T11:15:22;99798.41;;;18.82;48.55
15880;BME280;61999;51.514;14.614;2022-08-01T11:17:59;99790.13;;;19.36;47.22
15880;BME280;61999;51.514;14.614;2022-08-01T11:20:30;99797.16;;;20.32;45.06
15880;BME280;61999;51.514;14.614;2022-08-01T11:23:26;99785.59;;;19.52;44.45
15880;BME280;61999;51.514;14.614;2022-08-01T11:26:14;99816.03;;;19.21;46.04
15880;BME280;61999;51.514;14.614;2022-08-01T11:28:46;99835.81;;;16.54;51.67
15880;BME280;61999;51.514;14.614;2022-08-01T11:31:44;99839.75;;;16.17;55.10
15880;BME280;61999;51.514;14.614;2022-08-01T11:34:14;99830.13;;;16.16;54.12
15880;BME280;61999;51.514;14.614;2022-08-01T11:36:45;99852.41;;;15.30;57.91
15880;BME280;61999;51.514;14.614;2022-08-01T11:39:29;99848.66;;;15.15;60.37
15880;BME280;61999;51.514;14.614;2022-08-01T11:42:19;99871.31;;;14.83;62.33
15880;BME280;61999;51.514;14.614;2022-08-01T11:44:49;99871.00;;;14.86;62.74
15880;BME280;61999;51.514;14.614;2022-08-01T11:47:17;99877.75;;;14.99;61.36
15880;BME280;61999;51.514;14.614;2022-08-01T11:49:49;99879.00;;;15.12;61.03
15880;BME280;61999;51.514;14.614;2022-08-01T11:52:29;99889.97;;;13.55;65.09
15880;BME280;61999;51.514;14.614;2022-08-01T11:55:06;99880.97;;;14.66;62.21
15880;BME280;61999;51.514;14.614;2022-08-01T11:57:36;99876.50;;;15.71;59.13
15880;BME280;61999;51.514;14.614;2022-08-01T12:00:11;99875.19;;;16.26;57.29
15880;BME280;61999;51.514;14.614;2022-08-01T12:02:39;99869.75;;;16.60;55.34
15880;BME280;61999;51.514;14.614;2022-08-01T12:05:11;99869.09;;;16.91;54.58
15880;BME280;61999;51.514;14.614;2022-08-01T12:07:43;99877.31;;;17.53;53.03
15880;BME280;61999;51.514;14.614;2022-08-01T12:10:14;99879.06;;;17.69;51.67
15880;BME280;61999;51.514;14.614;2022-08-01T12:12:45;99881.22;;;18.36;50.01
15880;BME280;61999;51.514;14.614;2022-08-01T12:15:14;99873.59;;;18.56;50.11
15880;BME280;61999;51.514;14.614;2022-08-01T12:17:44;99872.47;;;18.88;48.49
15880;BME280;61999;51.514;14.614;2022-08-01T12:20:19;99868.56;;;19.58;48.29
15880;BME280;61999;51.514;14.614;2022-08-01T12:22:47;99869.28;;;19.97;47.43
15880;BME280;61999;51.514;14.614;2022-08-01T12:25:17;99862.69;;;20.36;47.14
15880;BME280;61999;51.514;14.614;2022-08-01T12:27:47;99856.94;;;20.82;44.29
15880;BME280;61999;51.514;14.614;2022-08-01T12:30:20;99868.06;;;21.41;43.38
15880;BME280;61999;51.514;14.614;2022-08-01T12:32:50;99867.94;;;22.04;43.51
15880;BME280;61999;51.514;14.614;2022-08-01T12:35:22;99864.66;;;22.02;42.08
15880;BME280;61999;51.514;14.614;2022-08-01T12:37:52;99866.84;;;23.00;39.50
15880;BME280;61999;51.514;14.614;2022-08-01T12:40:24;99863.19;;;23.98;35.91
15880;BME280;61999;51.514;14.614;2022-08-01T12:42:55;99868.56;;;24.11;36.54
15880;BME280;61999;51.514;14.614;2022-08-01T12:45:26;99877.16;;;23.81;35.08
15880;BME280;61999;51.514;14.614;2022-08-01T12:47:55;99871.09;;;22.28;38.62
15880;BME280;61999;51.514;14.614;2022-08-01T12:50:30;99867.31;;;24.07;35.53
15880;BME280;61999;51.514;14.614;2022-08-01T12:52:59;99863.84;;;24.31;34.97
15880;BME280;61999;51.514;14.614;2022-08-01T12:55:27;99874.28;;;24.21;35.20
15880;BME280;61999;51.514;14.614;2022-08-01T12:58:07;99872.00;;;26.11;32.16
15880;BME280;61999;51.514;14.614;2022-08-01T13:00:43;99882.53;;;26.84;30.92
15880;BME280;61999;51.514;14.614;2022-08-01T13:03:15;99886.66;;;27.10;30.75
15880;BME280;61999;51.514;14.614;2022-08-01T13:05:47;99877.13;;;28.58;29.56
15880;BME280;61999;51.514;14.614;2022-08-01T13:08:18;99883.22;;;27.38;28.51
15880;BME280;61999;51.514;14.614;2022-08-01T13:10:47;99882.59;;;28.46;29.68
15880;BME280;61999;51.514;14.614;2022-08-01T13:13:18;99890.19;;;28.44;28.65